sensor_id;sensor_type;location;lat;lon;timestamp;temperature;humidity
318;DHT22;146;53.448;10.228;2022-10-17T00:00:30;13.20;1.00
318;DHT22;146;53.448;10.228;2022-10-17T00:02:57;13.30;1.00
318;DHT22;146;53.448;10.228;2022-10-17T00:05:24;13.20;1.00
318;DHT22;146;53.448;10.228;2022-10-17T00:07:52;13.20;1.00
318;DHT22;146;53.448;10.228;2022-10-17T00:10:20;13.20;1.00
318;DHT22;146;53.448;10.228;2022-10-17T00:12:47;13.20;1.00
318;DHT22;146;53.448;10.228;2022-10-17T00:15:15;13.10;1.00
318;DHT22;146;53.448;10.228;2022-10-17T00:17:43;13.10;1.00
318;DHT22;146;53.448;10.228;2022-10-17T00:20:10;13.00;1.30
318;DHT22;146;53.448;10.228;2022-10-17T00:22:37;13.10;1.80
318;DHT22;146;53.448;10.228;2022-10-17T00:25:06;13.10;2.00
318;DHT22;146;53.448;10.228;2022-10-17T00:27:33;13.20;2.00
318;DHT22;146;53.448;10.228;2022-10-17T00:30:00;13.30;2.00
318;DHT22;146;53.448;10.228;2022-10-17T00:32:27;13.40;1.90
318;DHT22;146;53.448;10.228;2022-10-17T00:34:54;13.40;1.80
318;DHT22;146;53.448;10.228;2022-10-17T00:37:21;13.40;2.00
318;DHT22;146;53.448;10.228;2022-10-17T00:39:47;13.40;1.90
318;DHT22;146;53.448;10.228;2022-10-17T00:42:15;13.50;1.80
318;DHT22;146;53.448;10.228;2022-10-17T00:45:06;13.50;1.50
318;DHT22;146;53.448;10.228;2022-10-17T00:47:34;13.50;1.10
318;DHT22;146;53.448;10.228;2022-10-17T00:50:03;13.60;1.00
318;DHT22;146;53.448;10.228;2022-10-17T00:52:31;13.60;1.00
318;DHT22;146;53.448;10.228;2022-10-17T00:55:00;13.60;1.00
318;DHT22;146;53.448;10.228;2022-10-17T00:57:30;13.60;1.00
318;DHT22;146;53.448;10.228;2022-10-17T00:59:58;13.60;1.10
318;DHT22;146;53.448;10.228;2022-10-17T01:02:26;13.60;1.00
318;DHT22;146;53.448;10.228;2022-10-17T01:04:53;13.70;1.00
318;DHT22;146;53.448;10.228;2022-10-17T01:07:24;13.70;1.00
318;DHT22;146;53.448;10.228;2022-10-17T01:09:52;13.70;1.00
318;DHT22;146;53.448;10.228;2022-10-17T01:12:22;13.70;1.00
318;DHT22;146;53.448;10.228;2022-10-17T01:15:02;13.80;1.00
318;DHT22;146;53.448;10.228;2022-10-17T01:17:34;13.80;1.00
318;DHT22;146;53.448;10.228;2022-10-17T01:23:12;13.90;1.00
318;DHT22;146;53.448;10.228;2022-10-17T01:25:51;13.90;1.00
318;DHT22;146;53.448;10.228;2022-10-17T01:28:31;14.00;1.00
318;DHT22;146;53.448;10.228;2022-10-17T01:31:08;14.00;1.00
318;DHT22;146;53.448;10.228;2022-10-17T01:33:46;14.00;1.00
318;DHT22;146;53.448;10.228;2022-10-17T01:36:22;14.00;1.00
318;DHT22;146;53.448;10.228;2022-10-17T01:38:57;14.10;1.00
318;DHT22;146;53.448;10.228;2022-10-17T01:41:36;14.10;1.00
318;DHT22;146;53.448;10.228;2022-10-17T01:44:09;14.10;1.00
318;DHT22;146;53.448;10.228;2022-10-17T01:46:40;14.10;1.00
318;DHT22;146;53.448;10.228;2022-10-17T01:49:10;14.10;1.00
318;DHT22;146;53.448;10.228;2022-10-17T01:51:41;14.10;1.00
318;DHT22;146;53.448;10.228;2022-10-17T01:54:13;14.10;1.00
318;DHT22;146;53.448;10.228;2022-10-17T01:56:43;14.10;1.00
318;DHT22;146;53.448;10.228;2022-10-17T01:59:13;14.20;1.00
318;DHT22;146;53.448;10.228;2022-10-17T02:01:44;14.20;1.00
318;DHT22;146;53.448;10.228;2022-10-17T02:04:11;14.30;1.00
318;DHT22;146;53.448;10.228;2022-10-17T02:06:38;14.30;1.00
318;DHT22;146;53.448;10.228;2022-10-17T02:09:26;14.30;1.00
318;DHT22;146;53.448;10.228;2022-10-17T02:12:09;14.30;1.00
318;DHT22;146;53.448;10.228;2022-10-17T02:14:46;14.30;1.00
318;DHT22;146;53.448;10.228;2022-10-17T02:17:25;14.20;1.00
318;DHT22;146;53.448;10.228;2022-10-17T02:20:05;14.20;1.00
318;DHT22;146;53.448;10.228;2022-10-17T02:22:40;14.20;1.00
318;DHT22;146;53.448;10.228;2022-10-17T02:25:12;14.20;1.00
318;DHT22;146;53.448;10.228;2022-10-17T02:27:44;14.20;1.00
318;DHT22;146;53.448;10.228;2022-10-17T02:30:20;14.10;1.00
318;DHT22;146;53.448;10.228;2022-10-17T02:32:54;14.20;1.00
318;DHT22;146;53.448;10.228;2022-10-17T02:35:25;14.30;1.00
318;DHT22;146;53.448;10.228;2022-10-17T02:37:54;14.30;1.00
318;DHT22;146;53.448;10.228;2022-10-17T02:40:23;14.20;1.00
318;DHT22;146;53.448;10.228;2022-10-17T02:42:51;14.20;1.00
318;DHT22;146;53.448;10.228;2022-10-17T02:45:19;14.20;1.00
318;DHT22;146;53.448;10.228;2022-10-17T02:47:56;14.20;1.00
318;DHT22;146;53.448;10.228;2022-10-17T02:50:32;14.10;1.00
318;DHT22;146;53.448;10.228;2022-10-17T02:53:07;14.10;1.00
318;DHT22;146;53.448;10.228;2022-10-17T02:55:40;14.10;1.00
318;DHT22;146;53.448;10.228;2022-10-17T02:58:11;14.10;1.00
318;DHT22;146;53.448;10.228;2022-10-17T03:00:40;14.00;1.20
318;DHT22;146;53.448;10.228;2022-10-17T03:03:20;14.00;1.50
318;DHT22;146;53.448;10.228;2022-10-17T03:05:47;14.00;1.70
318;DHT22;146;53.448;10.228;2022-10-17T03:08:13;14.00;1.80
318;DHT22;146;53.448;10.228;2022-10-17T03:10:40;13.90;1.90
318;DHT22;146;53.448;10.228;2022-10-17T03:13:07;14.00;2.10
318;DHT22;146;53.448;10.228;2022-10-17T03:15:34;13.90;1.80
318;DHT22;146;53.448;10.228;2022-10-17T03:18:00;13.90;1.60
318;DHT22;146;53.448;10.228;2022-10-17T03:20:29;13.80;1.60
318;DHT22;146;53.448;10.228;2022-10-17T03:22:55;13.70;1.60
318;DHT22;146;53.448;10.228;2022-10-17T03:25:22;13.70;1.80
318;DHT22;146;53.448;10.228;2022-10-17T03:27:50;13.60;2.00
318;DHT22;146;53.448;10.228;2022-10-17T03:30:17;13.60;1.70
318;DHT22;146;53.448;10.228;2022-10-17T03:32:44;13.60;1.80
318;DHT22;146;53.448;10.228;2022-10-17T03:35:11;13.60;1.70
318;DHT22;146;53.448;10.228;2022-10-17T03:37:39;13.60;1.50
318;DHT22;146;53.448;10.228;2022-10-17T03:40:06;13.50;1.30
318;DHT22;146;53.448;10.228;2022-10-17T03:42:33;13.40;1.40
318;DHT22;146;53.448;10.228;2022-10-17T03:45:00;13.40;1.60
318;DHT22;146;53.448;10.228;2022-10-17T03:47:27;13.30;1.70
318;DHT22;146;53.448;10.228;2022-10-17T03:49:54;13.30;1.80
318;DHT22;146;53.448;10.228;2022-10-17T03:52:20;13.30;1.70
318;DHT22;146;53.448;10.228;2022-10-17T03:54:50;13.30;1.90
318;DHT22;146;53.448;10.228;2022-10-17T03:57:17;13.30;1.80
318;DHT22;146;53.448;10.228;2022-10-17T03:59:43;13.20;1.80
318;DHT22;146;53.448;10.228;2022-10-17T04:02:10;13.20;1.70
318;DHT22;146;53.448;10.228;2022-10-17T04:04:37;13.20;1.90
318;DHT22;146;53.448;10.228;2022-10-17T04:07:03;13.20;1.90
318;DHT22;146;53.448;10.228;2022-10-17T04:09:30;13.10;2.00
318;DHT22;146;53.448;10.228;2022-10-17T04:11:58;13.10;2.10
318;DHT22;146;53.448;10.228;2022-10-17T04:14:25;13.10;2.00
318;DHT22;146;53.448;10.228;2022-10-17T04:16:52;13.10;2.10
318;DHT22;146;53.448;10.228;2022-10-17T04:19:19;13.10;2.10
318;DHT22;146;53.448;10.228;2022-10-17T04:21:46;13.10;2.20
318;DHT22;146;53.448;10.228;2022-10-17T04:24:12;13.10;2.20
318;DHT22;146;53.448;10.228;2022-10-17T04:26:39;13.10;1.90
318;DHT22;146;53.448;10.228;2022-10-17T04:29:07;13.10;1.90
318;DHT22;146;53.448;10.228;2022-10-17T04:31:34;13.00;1.70
318;DHT22;146;53.448;10.228;2022-10-17T04:34:00;13.00;1.80
318;DHT22;146;53.448;10.228;2022-10-17T04:36:27;13.00;2.00
318;DHT22;146;53.448;10.228;2022-10-17T04:38:54;13.00;2.20
318;DHT22;146;53.448;10.228;2022-10-17T04:41:21;13.00;2.20
318;DHT22;146;53.448;10.228;2022-10-17T04:43:47;12.90;2.10
318;DHT22;146;53.448;10.228;2022-10-17T04:46:15;13.00;2.40
318;DHT22;146;53.448;10.228;2022-10-17T04:48:42;12.90;2.40
318;DHT22;146;53.448;10.228;2022-10-17T04:51:11;12.90;2.60
318;DHT22;146;53.448;10.228;2022-10-17T04:53:39;12.90;2.70
318;DHT22;146;53.448;10.228;2022-10-17T04:56:10;12.90;2.70
318;DHT22;146;53.448;10.228;2022-10-17T04:58:38;12.90;2.70
318;DHT22;146;53.448;10.228;2022-10-17T05:01:06;13.00;2.70
318;DHT22;146;53.448;10.228;2022-10-17T05:03:34;13.00;2.70
318;DHT22;146;53.448;10.228;2022-10-17T05:06:05;13.00;2.40
318;DHT22;146;53.448;10.228;2022-10-17T05:08:32;12.90;2.50
318;DHT22;146;53.448;10.228;2022-10-17T05:10:59;13.00;2.40
318;DHT22;146;53.448;10.228;2022-10-17T05:13:26;13.00;2.20
318;DHT22;146;53.448;10.228;2022-10-17T05:15:53;12.90;2.10
318;DHT22;146;53.448;10.228;2022-10-17T05:18:23;12.90;2.10
318;DHT22;146;53.448;10.228;2022-10-17T05:20:51;12.90;1.90
318;DHT22;146;53.448;10.228;2022-10-17T05:23:18;12.90;1.80
318;DHT22;146;53.448;10.228;2022-10-17T05:25:44;12.90;1.80
318;DHT22;146;53.448;10.228;2022-10-17T05:28:11;13.00;1.50
318;DHT22;146;53.448;10.228;2022-10-17T05:30:38;12.90;1.50
318;DHT22;146;53.448;10.228;2022-10-17T05:33:04;12.90;1.60
318;DHT22;146;53.448;10.228;2022-10-17T05:35:31;13.00;1.70
318;DHT22;146;53.448;10.228;2022-10-17T05:37:59;12.90;1.40
318;DHT22;146;53.448;10.228;2022-10-17T05:40:26;12.90;1.60
318;DHT22;146;53.448;10.228;2022-10-17T05:42:53;12.90;1.50
318;DHT22;146;53.448;10.228;2022-10-17T05:45:19;12.90;1.60
318;DHT22;146;53.448;10.228;2022-10-17T05:47:46;12.80;1.50
318;DHT22;146;53.448;10.228;2022-10-17T05:50:13;12.80;1.50
318;DHT22;146;53.448;10.228;2022-10-17T05:52:39;12.80;1.60
318;DHT22;146;53.448;10.228;2022-10-17T05:55:09;12.80;1.50
318;DHT22;146;53.448;10.228;2022-10-17T05:57:35;12.80;1.60
318;DHT22;146;53.448;10.228;2022-10-17T06:00:03;12.80;1.70
318;DHT22;146;53.448;10.228;2022-10-17T06:02:30;12.80;1.70
318;DHT22;146;53.448;10.228;2022-10-17T06:04:57;12.80;1.90
318;DHT22;146;53.448;10.228;2022-10-17T06:07:24;12.80;2.20
318;DHT22;146;53.448;10.228;2022-10-17T06:09:50;12.80;2.30
318;DHT22;146;53.448;10.228;2022-10-17T06:12:18;12.80;2.30
318;DHT22;146;53.448;10.228;2022-10-17T06:14:45;12.80;2.30
318;DHT22;146;53.448;10.228;2022-10-17T06:17:12;12.80;2.60
318;DHT22;146;53.448;10.228;2022-10-17T06:19:38;12.70;2.70
318;DHT22;146;53.448;10.228;2022-10-17T06:22:06;12.70;2.90
318;DHT22;146;53.448;10.228;2022-10-17T06:24:32;12.70;3.20
318;DHT22;146;53.448;10.228;2022-10-17T06:26:59;12.70;3.50
318;DHT22;146;53.448;10.228;2022-10-17T06:29:27;12.70;3.70
318;DHT22;146;53.448;10.228;2022-10-17T06:31:54;12.70;3.90
318;DHT22;146;53.448;10.228;2022-10-17T06:34:21;12.70;4.20
318;DHT22;146;53.448;10.228;2022-10-17T06:36:48;12.80;4.40
318;DHT22;146;53.448;10.228;2022-10-17T06:39:14;12.80;4.40
318;DHT22;146;53.448;10.228;2022-10-17T06:41:41;12.70;4.40
318;DHT22;146;53.448;10.228;2022-10-17T06:44:09;12.80;4.30
318;DHT22;146;53.448;10.228;2022-10-17T06:46:37;12.80;4.50
318;DHT22;146;53.448;10.228;2022-10-17T06:49:05;12.80;4.60
318;DHT22;146;53.448;10.228;2022-10-17T06:51:34;12.80;4.50
318;DHT22;146;53.448;10.228;2022-10-17T06:54:02;12.80;4.70
318;DHT22;146;53.448;10.228;2022-10-17T06:56:29;12.90;4.80
318;DHT22;146;53.448;10.228;2022-10-17T06:58:56;12.90;4.90
318;DHT22;146;53.448;10.228;2022-10-17T07:01:22;12.90;5.00
318;DHT22;146;53.448;10.228;2022-10-17T07:03:50;13.00;5.20
318;DHT22;146;53.448;10.228;2022-10-17T07:06:17;13.00;5.40
318;DHT22;146;53.448;10.228;2022-10-17T07:08:44;13.10;5.70
318;DHT22;146;53.448;10.228;2022-10-17T07:11:12;13.10;5.70
318;DHT22;146;53.448;10.228;2022-10-17T07:13:40;13.20;5.80
318;DHT22;146;53.448;10.228;2022-10-17T07:16:08;13.30;6.10
318;DHT22;146;53.448;10.228;2022-10-17T07:18:35;13.30;5.80
318;DHT22;146;53.448;10.228;2022-10-17T07:21:03;13.40;5.50
318;DHT22;146;53.448;10.228;2022-10-17T07:23:30;13.40;5.70
318;DHT22;146;53.448;10.228;2022-10-17T07:25:59;13.50;5.50
318;DHT22;146;53.448;10.228;2022-10-17T07:28:27;13.60;5.70
318;DHT22;146;53.448;10.228;2022-10-17T07:30:54;13.60;5.70
318;DHT22;146;53.448;10.228;2022-10-17T07:33:20;13.70;5.90
318;DHT22;146;53.448;10.228;2022-10-17T07:35:47;13.80;5.80
318;DHT22;146;53.448;10.228;2022-10-17T07:38:15;13.80;5.40
318;DHT22;146;53.448;10.228;2022-10-17T07:40:42;13.90;5.40
318;DHT22;146;53.448;10.228;2022-10-17T07:43:09;13.90;5.50
318;DHT22;146;53.448;10.228;2022-10-17T07:45:35;14.00;5.50
318;DHT22;146;53.448;10.228;2022-10-17T07:48:03;14.10;5.50
318;DHT22;146;53.448;10.228;2022-10-17T07:50:29;14.10;5.30
318;DHT22;146;53.448;10.228;2022-10-17T07:52:57;14.10;5.50
318;DHT22;146;53.448;10.228;2022-10-17T07:55:25;14.10;5.40
318;DHT22;146;53.448;10.228;2022-10-17T07:57:52;14.10;5.60
318;DHT22;146;53.448;10.228;2022-10-17T08:00:19;14.20;5.90
318;DHT22;146;53.448;10.228;2022-10-17T08:02:45;14.30;6.20
318;DHT22;146;53.448;10.228;2022-10-17T08:05:12;14.30;6.50
318;DHT22;146;53.448;10.228;2022-10-17T08:07:39;14.40;6.80
318;DHT22;146;53.448;10.228;2022-10-17T08:10:07;14.50;7.10
318;DHT22;146;53.448;10.228;2022-10-17T08:12:35;14.60;7.70
318;DHT22;146;53.448;10.228;2022-10-17T08:15:02;14.80;8.00
318;DHT22;146;53.448;10.228;2022-10-17T08:17:29;15.00;7.80
318;DHT22;146;53.448;10.228;2022-10-17T08:19:56;15.20;7.60
318;DHT22;146;53.448;10.228;2022-10-17T08:22:23;15.30;7.40
318;DHT22;146;53.448;10.228;2022-10-17T08:24:50;15.40;7.30
318;DHT22;146;53.448;10.228;2022-10-17T08:27:16;15.60;6.90
318;DHT22;146;53.448;10.228;2022-10-17T08:29:50;15.70;6.70
318;DHT22;146;53.448;10.228;2022-10-17T08:32:18;15.80;6.10
318;DHT22;146;53.448;10.228;2022-10-17T08:34:46;15.80;5.50
318;DHT22;146;53.448;10.228;2022-10-17T08:37:12;15.90;5.30
318;DHT22;146;53.448;10.228;2022-10-17T08:39:39;16.00;5.00
318;DHT22;146;53.448;10.228;2022-10-17T08:42:29;16.10;4.70
318;DHT22;146;53.448;10.228;2022-10-17T08:45:08;16.20;4.30
318;DHT22;146;53.448;10.228;2022-10-17T08:47:38;16.20;4.70
318;DHT22;146;53.448;10.228;2022-10-17T08:50:11;16.30;4.80
318;DHT22;146;53.448;10.228;2022-10-17T08:52:43;16.40;5.30
318;DHT22;146;53.448;10.228;2022-10-17T08:55:14;16.50;5.10
318;DHT22;146;53.448;10.228;2022-10-17T08:57:41;16.60;5.10
318;DHT22;146;53.448;10.228;2022-10-17T09:00:16;16.70;5.10
318;DHT22;146;53.448;10.228;2022-10-17T09:02:52;16.90;5.60
318;DHT22;146;53.448;10.228;2022-10-17T09:05:29;17.10;5.80
318;DHT22;146;53.448;10.228;2022-10-17T09:08:06;17.30;3.70
318;DHT22;146;53.448;10.228;2022-10-17T09:10:46;17.40;2.30
318;DHT22;146;53.448;10.228;2022-10-17T09:13:23;17.50;1.00
318;DHT22;146;53.448;10.228;2022-10-17T09:16:03;17.50;1.10
318;DHT22;146;53.448;10.228;2022-10-17T09:18:34;17.50;1.80
318;DHT22;146;53.448;10.228;2022-10-17T09:21:11;17.50;2.70
318;DHT22;146;53.448;10.228;2022-10-17T09:23:45;17.60;2.80
318;DHT22;146;53.448;10.228;2022-10-17T09:26:13;17.80;2.50
318;DHT22;146;53.448;10.228;2022-10-17T09:28:42;17.90;2.40
318;DHT22;146;53.448;10.228;2022-10-17T09:31:15;18.10;2.50
318;DHT22;146;53.448;10.228;2022-10-17T09:33:45;18.30;1.90
318;DHT22;146;53.448;10.228;2022-10-17T09:36:23;18.40;1.40
318;DHT22;146;53.448;10.228;2022-10-17T09:38:52;18.40;1.00
318;DHT22;146;53.448;10.228;2022-10-17T09:41:22;18.60;1.00
318;DHT22;146;53.448;10.228;2022-10-17T09:43:51;18.60;1.00
318;DHT22;146;53.448;10.228;2022-10-17T09:46:24;18.60;1.00
318;DHT22;146;53.448;10.228;2022-10-17T09:48:54;18.60;1.00
318;DHT22;146;53.448;10.228;2022-10-17T09:51:23;18.60;1.00
318;DHT22;146;53.448;10.228;2022-10-17T09:53:53;18.60;1.00
318;DHT22;146;53.448;10.228;2022-10-17T09:56:20;18.70;1.00
318;DHT22;146;53.448;10.228;2022-10-17T09:58:49;18.80;1.00
318;DHT22;146;53.448;10.228;2022-10-17T10:01:22;18.90;1.00
318;DHT22;146;53.448;10.228;2022-10-17T10:04:07;19.00;1.00
318;DHT22;146;53.448;10.228;2022-10-17T10:06:34;19.10;1.00
318;DHT22;146;53.448;10.228;2022-10-17T10:09:03;19.10;1.00
318;DHT22;146;53.448;10.228;2022-10-17T10:11:46;19.20;1.00
318;DHT22;146;53.448;10.228;2022-10-17T10:14:21;19.20;1.00
318;DHT22;146;53.448;10.228;2022-10-17T10:17:05;19.40;1.00
318;DHT22;146;53.448;10.228;2022-10-17T10:19:34;19.50;1.00
318;DHT22;146;53.448;10.228;2022-10-17T10:22:03;19.50;1.00
318;DHT22;146;53.448;10.228;2022-10-17T10:24:30;19.50;1.00
318;DHT22;146;53.448;10.228;2022-10-17T10:26:58;19.60;1.00
318;DHT22;146;53.448;10.228;2022-10-17T10:29:28;19.60;1.00
318;DHT22;146;53.448;10.228;2022-10-17T10:31:56;19.70;1.00
318;DHT22;146;53.448;10.228;2022-10-17T10:34:28;19.90;1.00
318;DHT22;146;53.448;10.228;2022-10-17T10:37:00;20.00;1.00
318;DHT22;146;53.448;10.228;2022-10-17T10:39:41;20.10;1.00
318;DHT22;146;53.448;10.228;2022-10-17T10:42:19;20.30;1.00
318;DHT22;146;53.448;10.228;2022-10-17T10:44:48;20.30;1.00
318;DHT22;146;53.448;10.228;2022-10-17T10:47:19;20.40;1.00
318;DHT22;146;53.448;10.228;2022-10-17T10:49:50;20.40;1.00
318;DHT22;146;53.448;10.228;2022-10-17T10:52:29;20.40;1.00
318;DHT22;146;53.448;10.228;2022-10-17T10:55:05;20.50;1.00
318;DHT22;146;53.448;10.228;2022-10-17T10:57:40;20.60;1.00
318;DHT22;146;53.448;10.228;2022-10-17T11:00:14;20.60;1.00
318;DHT22;146;53.448;10.228;2022-10-17T11:02:47;20.60;1.00
318;DHT22;146;53.448;10.228;2022-10-17T11:05:22;20.60;1.00
318;DHT22;146;53.448;10.228;2022-10-17T11:07:53;20.60;1.00
318;DHT22;146;53.448;10.228;2022-10-17T11:10:29;20.60;1.00
318;DHT22;146;53.448;10.228;2022-10-17T11:12:59;20.60;1.00
318;DHT22;146;53.448;10.228;2022-10-17T11:15:32;20.60;1.00
318;DHT22;146;53.448;10.228;2022-10-17T11:18:03;20.60;1.00
318;DHT22;146;53.448;10.228;2022-10-17T11:20:40;20.60;1.00
318;DHT22;146;53.448;10.228;2022-10-17T11:23:15;20.60;1.00
318;DHT22;146;53.448;10.228;2022-10-17T11:25:45;20.70;1.00
318;DHT22;146;53.448;10.228;2022-10-17T11:28:14;20.70;1.00
318;DHT22;146;53.448;10.228;2022-10-17T11:30:46;20.80;1.00
318;DHT22;146;53.448;10.228;2022-10-17T11:33:19;20.90;1.00
318;DHT22;146;53.448;10.228;2022-10-17T11:35:52;21.00;1.00
318;DHT22;146;53.448;10.228;2022-10-17T11:38:26;21.10;1.00
318;DHT22;146;53.448;10.228;2022-10-17T11:40:58;21.20;1.00
318;DHT22;146;53.448;10.228;2022-10-17T11:43:27;21.10;1.00
318;DHT22;146;53.448;10.228;2022-10-17T11:45:58;21.10;1.00
318;DHT22;146;53.448;10.228;2022-10-17T11:48:30;21.20;1.00
318;DHT22;146;53.448;10.228;2022-10-17T11:51:08;21.20;1.00
318;DHT22;146;53.448;10.228;2022-10-17T11:53:44;21.20;1.00
318;DHT22;146;53.448;10.228;2022-10-17T11:56:14;21.30;1.00
318;DHT22;146;53.448;10.228;2022-10-17T11:58:45;21.30;1.00
318;DHT22;146;53.448;10.228;2022-10-17T12:01:23;21.20;1.00
318;DHT22;146;53.448;10.228;2022-10-17T12:03:59;21.20;1.00
318;DHT22;146;53.448;10.228;2022-10-17T12:06:42;21.20;1.00
318;DHT22;146;53.448;10.228;2022-10-17T12:09:16;21.20;1.00
318;DHT22;146;53.448;10.228;2022-10-17T12:11:48;21.10;1.00
318;DHT22;146;53.448;10.228;2022-10-17T12:14:36;21.10;1.00
318;DHT22;146;53.448;10.228;2022-10-17T12:17:03;21.10;1.00
318;DHT22;146;53.448;10.228;2022-10-17T12:19:33;21.00;1.00
318;DHT22;146;53.448;10.228;2022-10-17T12:22:19;21.00;1.00
318;DHT22;146;53.448;10.228;2022-10-17T12:24:58;21.00;1.00
318;DHT22;146;53.448;10.228;2022-10-17T12:27:34;20.90;1.00
318;DHT22;146;53.448;10.228;2022-10-17T12:30:05;20.90;1.00
318;DHT22;146;53.448;10.228;2022-10-17T12:32:32;20.90;1.00
318;DHT22;146;53.448;10.228;2022-10-17T12:34:59;20.90;1.00
318;DHT22;146;53.448;10.228;2022-10-17T12:38:13;20.90;1.00
318;DHT22;146;53.448;10.228;2022-10-17T12:40:57;20.90;1.00
318;DHT22;146;53.448;10.228;2022-10-17T12:43:55;20.90;1.00
318;DHT22;146;53.448;10.228;2022-10-17T12:56:36;20.70;1.00
318;DHT22;146;53.448;10.228;2022-10-17T12:59:08;20.70;1.00
318;DHT22;146;53.448;10.228;2022-10-17T13:01:39;20.70;1.00
318;DHT22;146;53.448;10.228;2022-10-17T13:04:09;20.70;1.00
318;DHT22;146;53.448;10.228;2022-10-17T13:06:39;20.60;1.00
318;DHT22;146;53.448;10.228;2022-10-17T13:09:19;20.50;1.00
318;DHT22;146;53.448;10.228;2022-10-17T13:11:50;20.50;1.00
318;DHT22;146;53.448;10.228;2022-10-17T13:14:20;20.50;1.00
318;DHT22;146;53.448;10.228;2022-10-17T13:16:52;20.50;1.00
318;DHT22;146;53.448;10.228;2022-10-17T13:19:21;20.40;1.00
318;DHT22;146;53.448;10.228;2022-10-17T13:21:49;20.40;1.00
318;DHT22;146;53.448;10.228;2022-10-17T13:24:20;20.30;1.00
318;DHT22;146;53.448;10.228;2022-10-17T13:26:49;20.20;1.00
318;DHT22;146;53.448;10.228;2022-10-17T13:29:16;20.30;1.00
318;DHT22;146;53.448;10.228;2022-10-17T13:31:50;20.20;1.00
318;DHT22;146;53.448;10.228;2022-10-17T13:34:19;20.10;1.00
318;DHT22;146;53.448;10.228;2022-10-17T13:36:47;20.10;1.00
318;DHT22;146;53.448;10.228;2022-10-17T13:39:17;20.10;1.00
318;DHT22;146;53.448;10.228;2022-10-17T13:41:44;19.90;1.00
318;DHT22;146;53.448;10.228;2022-10-17T13:44:15;19.80;1.00
318;DHT22;146;53.448;10.228;2022-10-17T13:46:42;19.80;1.00
318;DHT22;146;53.448;10.228;2022-10-17T13:49:15;19.80;1.00
318;DHT22;146;53.448;10.228;2022-10-17T13:51:45;19.70;1.00
318;DHT22;146;53.448;10.228;2022-10-17T13:54:32;19.80;1.00
318;DHT22;146;53.448;10.228;2022-10-17T13:57:01;19.70;1.00
318;DHT22;146;53.448;10.228;2022-10-17T13:59:33;19.70;1.00
318;DHT22;146;53.448;10.228;2022-10-17T14:02:02;19.70;1.00
318;DHT22;146;53.448;10.228;2022-10-17T14:04:30;19.60;1.00
318;DHT22;146;53.448;10.228;2022-10-17T14:06:57;19.50;1.00
318;DHT22;146;53.448;10.228;2022-10-17T14:09:26;19.40;3.10
318;DHT22;146;53.448;10.228;2022-10-17T14:12:00;19.20;4.20
318;DHT22;146;53.448;10.228;2022-10-17T14:14:29;19.20;5.70
318;DHT22;146;53.448;10.228;2022-10-17T14:16:56;19.10;6.20
318;DHT22;146;53.448;10.228;2022-10-17T14:19:25;19.00;7.10
318;DHT22;146;53.448;10.228;2022-10-17T14:21:53;18.90;7.90
318;DHT22;146;53.448;10.228;2022-10-17T14:24:27;18.90;8.30
318;DHT22;146;53.448;10.228;2022-10-17T14:26:57;18.80;8.50
318;DHT22;146;53.448;10.228;2022-10-17T14:29:26;18.80;8.60
318;DHT22;146;53.448;10.228;2022-10-17T14:32:01;18.80;8.60
318;DHT22;146;53.448;10.228;2022-10-17T14:34:32;18.70;9.20
318;DHT22;146;53.448;10.228;2022-10-17T14:37:00;18.70;9.30
318;DHT22;146;53.448;10.228;2022-10-17T14:39:27;18.70;9.20
318;DHT22;146;53.448;10.228;2022-10-17T14:41:54;18.60;9.40
318;DHT22;146;53.448;10.228;2022-10-17T14:50:25;18.70;9.90
318;DHT22;146;53.448;10.228;2022-10-17T14:53:01;18.60;10.00
318;DHT22;146;53.448;10.228;2022-10-17T14:55:29;18.50;10.30
318;DHT22;146;53.448;10.228;2022-10-17T14:57:56;18.50;10.80
318;DHT22;146;53.448;10.228;2022-10-17T15:00:24;18.50;11.20
318;DHT22;146;53.448;10.228;2022-10-17T15:02:52;18.50;11.40
318;DHT22;146;53.448;10.228;2022-10-17T15:05:19;18.50;11.60
318;DHT22;146;53.448;10.228;2022-10-17T15:07:48;18.40;11.70
318;DHT22;146;53.448;10.228;2022-10-17T15:10:30;18.40;12.20
318;DHT22;146;53.448;10.228;2022-10-17T15:12:58;18.40;12.60
318;DHT22;146;53.448;10.228;2022-10-17T15:15:26;18.40;12.80
318;DHT22;146;53.448;10.228;2022-10-17T15:17:53;18.30;12.80
318;DHT22;146;53.448;10.228;2022-10-17T15:20:20;18.30;12.90
318;DHT22;146;53.448;10.228;2022-10-17T15:22:51;18.30;12.90
318;DHT22;146;53.448;10.228;2022-10-17T15:25:19;18.30;12.90
318;DHT22;146;53.448;10.228;2022-10-17T15:27:46;18.30;12.90
318;DHT22;146;53.448;10.228;2022-10-17T15:30:18;18.30;12.90
318;DHT22;146;53.448;10.228;2022-10-17T15:32:46;18.40;12.80
318;DHT22;146;53.448;10.228;2022-10-17T15:35:13;18.30;12.70
318;DHT22;146;53.448;10.228;2022-10-17T15:37:39;18.30;12.80
318;DHT22;146;53.448;10.228;2022-10-17T15:40:13;18.30;13.00
318;DHT22;146;53.448;10.228;2022-10-17T15:42:41;18.30;13.10
318;DHT22;146;53.448;10.228;2022-10-17T15:45:09;18.30;13.20
318;DHT22;146;53.448;10.228;2022-10-17T15:47:36;18.20;13.00
318;DHT22;146;53.448;10.228;2022-10-17T15:50:04;18.20;13.20
318;DHT22;146;53.448;10.228;2022-10-17T15:52:33;18.20;13.50
318;DHT22;146;53.448;10.228;2022-10-17T15:55:00;18.10;13.60
318;DHT22;146;53.448;10.228;2022-10-17T15:57:33;18.10;13.70
318;DHT22;146;53.448;10.228;2022-10-17T16:00:04;18.00;13.60
318;DHT22;146;53.448;10.228;2022-10-17T16:02:31;18.00;14.00
318;DHT22;146;53.448;10.228;2022-10-17T16:04:59;18.00;14.10
318;DHT22;146;53.448;10.228;2022-10-17T16:07:25;18.00;14.20
318;DHT22;146;53.448;10.228;2022-10-17T16:09:52;17.90;14.10
318;DHT22;146;53.448;10.228;2022-10-17T16:12:22;17.90;14.20
318;DHT22;146;53.448;10.228;2022-10-17T16:14:52;17.80;14.20
318;DHT22;146;53.448;10.228;2022-10-17T16:17:19;17.90;14.60
318;DHT22;146;53.448;10.228;2022-10-17T16:19:46;18.00;14.70
318;DHT22;146;53.448;10.228;2022-10-17T16:22:19;18.00;14.40
318;DHT22;146;53.448;10.228;2022-10-17T16:24:47;18.00;13.90
318;DHT22;146;53.448;10.228;2022-10-17T16:27:13;18.00;13.80
318;DHT22;146;53.448;10.228;2022-10-17T16:29:40;18.00;13.60
318;DHT22;146;53.448;10.228;2022-10-17T16:32:09;18.00;13.50
318;DHT22;146;53.448;10.228;2022-10-17T16:34:35;18.00;13.50
318;DHT22;146;53.448;10.228;2022-10-17T16:37:02;18.00;13.50
318;DHT22;146;53.448;10.228;2022-10-17T16:39:29;18.00;13.30
318;DHT22;146;53.448;10.228;2022-10-17T16:41:56;18.00;13.50
318;DHT22;146;53.448;10.228;2022-10-17T16:44:22;17.90;13.30
318;DHT22;146;53.448;10.228;2022-10-17T16:46:49;17.80;13.40
318;DHT22;146;53.448;10.228;2022-10-17T16:49:17;17.80;13.70
318;DHT22;146;53.448;10.228;2022-10-17T16:51:44;17.70;13.80
318;DHT22;146;53.448;10.228;2022-10-17T16:54:10;17.70;13.90
318;DHT22;146;53.448;10.228;2022-10-17T16:56:37;17.70;14.00
318;DHT22;146;53.448;10.228;2022-10-17T16:59:04;17.70;13.80
318;DHT22;146;53.448;10.228;2022-10-17T17:01:30;17.60;13.90
318;DHT22;146;53.448;10.228;2022-10-17T17:03:57;17.60;14.30
318;DHT22;146;53.448;10.228;2022-10-17T17:06:27;17.70;14.20
318;DHT22;146;53.448;10.228;2022-10-17T17:08:54;17.70;14.10